ADDS METAR Data INFO
IDs: Format: Raw Decoded Include TAF

Data at: 0644 UTC 23 Feb 2018

KMLS 230553Z AUTO 28006KT 10SM CLR M23/M26 A3023 RMK AO2 SLP314 T12281256 11172 21233 50002
KMLS 230453Z AUTO 29013KT 10SM CLR M23/M24 A3023 RMK AO2 SLP319 T12281244
KMLS 230353Z AUTO 31010KT 10SM CLR M22/M24 A3022 RMK AO2 SLP317 T12221244
KMLS 230253Z AUTO 30010KT 10SM CLR M22/M24 A3022 RMK AO2 SLP317 T12171239 51014
KMLS 230153Z AUTO 29010KT 10SM CLR M21/M23 A3021 RMK AO2 SLP314 T12061228
KMLS 230053Z AUTO 29007KT 10SM CLR M19/M22 A3019 RMK AO2 SLP305 T11941217
KMLS 222353Z AUTO 29006KT 10SM CLR M17/M20 A3018 RMK AO2 SLP297 60000 T11721200 11167 21228 53001
KMLS 222253Z AUTO 20003KT 10SM CLR M17/M19 A3016 RMK AO2 SLP292 T11671189
KMLS 222153Z AUTO 00000KT 10SM CLR M17/M19 A3017 RMK AO2 SNB20E36 SLP293 P0000 T11721189
KMLS 222053Z AUTO 00000KT 10SM CLR M18/M19 A3017 RMK AO2 SLP295 60000 T11781194 58011
KMLS 221953Z AUTO 19005KT 9SM CLR M19/M21 A3019 RMK AO2 SNB16E49 SLP303 P0000 T11941211
KMLS 221853Z AUTO 00000KT 10SM CLR M20/M21 A3020 RMK AO2 SLP308 T12001211
KMLS 221753Z AUTO 29003KT 10SM CLR M23/M25 A3021 RMK AO2 SLP313 60000 T12331250 11233 21300 52007
KMLS 221653Z AUTO 28005KT 9SM CLR M26/M28 A3020 RMK AO2 SNB21E52 SLP312 P0000 T12561283
KMLS 221553Z AUTO 21003KT 10SM CLR M27/M27 A3020 RMK AO2 SLP311 T12721272
KMLS 221453Z AUTO 27003KT 10SM CLR M29/M31 A3019 RMK AO2 SLP310 T12891306 53007
KMLS 221353Z AUTO 24003KT 10SM CLR M30/M32 A3017 RMK AO2 SLP303 T13001322
KMLS 221253Z AUTO 29004KT 10SM CLR M29/M32 A3016 RMK AO2 SLP299 T12941317
KMLS 221153Z AUTO 30004KT 10SM CLR M29/M32 A3016 RMK AO2 SLP296 T12941317 11261 21294 55002
KMLS 221053Z AUTO 30004KT 10SM CLR M29/M31 A3016 RMK AO2 SLP290 T12891306
KMLS 220953Z AUTO 30004KT 10SM CLR M28/M31 A3016 RMK AO2 SLP292 T12831306
KMLS 220853Z AUTO 31005KT 10SM CLR M28/M31 A3017 RMK AO2 SLP295 T12831306 53002
KMLS 220753Z AUTO 33004KT 10SM CLR M28/M31 A3017 RMK AO2 SLP294 T12831311
KMLS 220653Z AUTO 00000KT 10SM CLR M28/M29 A3016 RMK AO2 SLP294 T12781294 411611278
KMLS 220553Z AUTO 00000KT 10SM FEW070 M27/M29 A3016 RMK AO2 SLP295 60000 I1000 I6000 T12671289 11178 21272 50000
KMLS 220453Z AUTO 35003KT 10SM CLR M26/M28 A3017 RMK AO2 SLP298 T12611278
KMLS 220353Z AUTO 30004KT 10SM CLR M25/M27 A3017 RMK AO2 SLP301 T12501267
KMLS 212353Z AUTO 05005KT 10SM UP CLR M19/M24 A3018 RMK AO2 UPB49 SLP297 P0000 60000 T11941239 11161 21211 58006
KMLS 212253Z AUTO 04004KT 10SM CLR M18/M23 A3019 RMK AO2 SNE14 SLP297 P0000 T11831228
KMLS 212153Z AUTO 06006KT 9SM -SN CLR M18/M23 A3019 RMK AO2 UPB02E13B33E44SNE02B46 SLP297 P0000 T11831228
KMLS 212053Z AUTO 05007KT 9SM -SN CLR M18/M22 A3020 RMK AO2 SNB28 SLP298 P0000 60000 T11781222 58017
KMLS 211953Z AUTO 00000KT 10SM CLR M18/M22 A3022 RMK AO2 SNB21E34 SLP308 P0000 T11831217
KMLS 211853Z AUTO 13005KT 10SM CLR M21/M24 A3024 RMK AO2 SLP316 T12061239